Time;durP1;ratioP1;P1;durP2;ratioP2;P2;SDS_P1;SDS_P2;PMS_P1;PMS_P2;Temp;Humidity;BMP_temperature;BMP_pressure;BME280_temperature;BME280_humidity;BME280_pressure;Samples;Min_cycle;Max_cycle;Signal;HPM_P1;HPM_P2
2021/09/21 00:01:10;;;;;;;1.73;1.20;;;23.80;51.90;;;;;;5038772;28;20496;-60
2021/09/21 00:03:36;;;;;;;1.85;1.33;;;23.80;52.00;;;;;;5045938;28;20029;-58
2021/09/21 00:06:05;;;;;;;2.95;1.60;;;23.70;52.00;;;;;;5048054;28;20028;-60
2021/09/21 00:08:31;;;;;;;1.97;1.30;;;23.80;52.00;;;;;;5037705;28;20516;-60
2021/09/21 00:10:58;;;;;;;2.05;1.40;;;23.70;52.00;;;;;;5036650;28;20150;-56
2021/09/21 00:13:25;;;;;;;1.92;1.40;;;23.70;52.00;;;;;;5045626;28;20068;-60
2021/09/21 00:15:51;;;;;;;1.77;1.17;;;23.70;52.00;;;;;;5040278;28;20385;-51
2021/09/21 00:18:16;;;;;;;1.85;1.30;;;23.70;52.00;;;;;;5029327;28;20033;-60
2021/09/21 00:20:42;;;;;;;1.90;1.40;;;23.70;52.00;;;;;;5043830;28;20036;-60
2021/09/21 00:23:08;;;;;;;2.13;1.40;;;23.70;52.00;;;;;;5047042;28;20096;-60
2021/09/21 00:25:34;;;;;;;1.83;1.40;;;23.70;52.00;;;;;;5036439;28;20021;-58
2021/09/21 00:28:00;;;;;;;2.00;1.40;;;23.70;52.60;;;;;;5038144;28;20056;-57
2021/09/21 00:30:26;;;;;;;2.03;1.40;;;23.70;52.00;;;;;;5045424;28;20063;-60
2021/09/21 00:33:05;;;;;;;1.65;1.38;;;23.60;52.00;;;;;;5034229;28;20060;-59
2021/09/21 00:35:32;;;;;;;;;;;23.70;52.10;;;;;;5028693;28;20028;-60
2021/09/21 00:37:58;;;;;;;1.95;1.30;;;23.70;52.10;;;;;;5033934;28;19920;-60
2021/09/21 00:40:24;;;;;;;1.77;1.40;;;23.60;52.10;;;;;;5032458;28;20221;-59
2021/09/21 00:42:51;;;;;;;1.85;1.38;;;23.60;52.10;;;;;;5037097;28;20495;-61
2021/09/21 00:45:24;;;;;;;1.95;1.30;;;23.60;52.10;;;;;;5046734;28;20064;-58
2021/09/21 00:47:53;;;;;;;2.35;1.50;;;23.60;52.10;;;;;;5040241;28;20061;-60
2021/09/21 00:50:21;;;;;;;1.90;1.40;;;23.60;52.10;;;;;;5032966;28;20040;-58
2021/09/21 00:52:51;;;;;;;1.70;1.30;;;23.60;52.10;;;;;;5043736;28;20025;-60
2021/09/21 00:55:17;;;;;;;2.88;1.45;;;23.60;52.20;;;;;;5043945;28;20436;-60
2021/09/21 00:57:43;;;;;;;1.52;1.20;;;23.60;52.20;;;;;;5040027;28;20092;-60
2021/09/21 01:00:11;;;;;;;1.75;1.33;;;23.60;52.10;;;;;;5038977;28;20038;-60
2021/09/21 01:02:36;;;;;;;1.75;1.20;;;23.60;52.20;;;;;;5034375;28;20343;-59
2021/09/21 01:05:03;;;;;;;2.05;1.35;;;23.60;52.20;;;;;;5037020;28;20031;-59
2021/09/21 01:07:29;;;;;;;2.08;1.40;;;23.60;52.20;;;;;;5044255;28;20107;-60
2021/09/21 01:10:08;;;;;;;1.92;1.30;;;23.60;52.20;;;;;;5037342;28;20040;-53
2021/09/21 01:12:35;;;;;;;1.97;1.40;;;23.50;52.10;;;;;;5038561;28;20183;-59
2021/09/21 01:15:02;;;;;;;2.00;1.48;;;23.50;52.20;;;;;;5046519;28;20408;-59
2021/09/21 01:17:28;;;;;;;1.95;1.45;;;23.50;52.20;;;;;;5043012;28;20393;-58
2021/09/21 01:19:53;;;;;;;2.10;1.52;;;23.50;52.20;;;;;;5044047;28;20059;-59
2021/09/21 01:22:19;;;;;;;2.28;1.52;;;23.50;52.70;;;;;;5039662;28;20037;-52
2021/09/21 01:24:44;;;;;;;1.52;1.20;;;23.50;52.20;;;;;;5038636;28;20017;-59
2021/09/21 01:27:10;;;;;;;2.35;1.33;;;23.50;52.20;;;;;;5036480;28;20104;-59
2021/09/21 01:29:36;;;;;;;2.80;1.42;;;23.50;52.20;;;;;;5029832;28;20029;-59
2021/09/21 01:32:02;;;;;;;2.10;1.35;;;23.50;52.20;;;;;;5026712;28;20132;-59
2021/09/21 01:34:28;;;;;;;1.77;1.33;;;23.50;52.30;;;;;;5043001;28;20453;-53
2021/09/21 01:36:54;;;;;;;2.05;1.50;;;23.50;52.30;;;;;;5046761;28;20033;-56
2021/09/21 01:39:20;;;;;;;1.80;1.30;;;23.50;52.30;;;;;;5040536;28;20026;-55
2021/09/21 01:41:46;;;;;;;1.98;1.50;;;23.50;52.30;;;;;;5039219;28;20485;-56
2021/09/21 01:44:16;;;;;;;1.90;1.42;;;23.40;52.20;;;;;;5032085;28;20096;-58
2021/09/21 01:46:43;;;;;;;2.10;1.33;;;23.40;52.20;;;;;;5031364;28;20485;-59
2021/09/21 01:49:08;;;;;;;1.80;1.35;;;23.40;52.20;;;;;;5035899;28;20439;-57
2021/09/21 01:51:37;;;;;;;1.80;1.30;;;23.40;52.30;;;;;;5042439;28;20025;-58
2021/09/21 01:59:19;;;;;;;1.70;1.30;;;23.40;52.30;;;;;;5031296;28;20140;-56
2021/09/21 02:01:44;;;;;;;2.03;1.50;;;23.40;52.40;;;;;;5043518;28;20973;-58
2021/09/21 02:04:10;;;;;;;2.63;1.30;;;23.40;52.30;;;;;;5031182;28;20079;-59
2021/09/21 02:06:41;;;;;;;1.90;1.42;;;23.40;52.40;;;;;;5046702;28;20500;-59
2021/09/21 02:09:09;;;;;;;2.08;1.50;;;23.40;52.40;;;;;;5043904;28;20045;-59
2021/09/21 02:11:36;;;;;;;1.88;1.38;;;23.40;52.40;;;;;;5044552;28;20024;-59
2021/09/21 02:14:03;;;;;;;1.90;1.30;;;23.40;52.40;;;;;;5036118;28;20421;-58
2021/09/21 02:16:31;;;;;;;1.65;1.20;;;23.30;52.30;;;;;;5031203;28;20041;-59
2021/09/21 02:18:58;;;;;;;1.70;1.40;;;23.30;52.40;;;;;;5038843;28;20034;-56
2021/09/21 02:21:24;;;;;;;1.80;1.20;;;23.30;52.40;;;;;;5032754;28;20525;-59
2021/09/21 02:23:51;;;;;;;1.38;1.15;;;23.30;52.40;;;;;;5039511;28;20447;-59
2021/09/21 02:26:17;;;;;;;1.45;1.20;;;23.30;52.40;;;;;;5031049;28;20079;-58
2021/09/21 02:28:43;;;;;;;1.58;1.15;;;23.30;52.40;;;;;;5045283;28;20326;-59
2021/09/21 02:31:09;;;;;;;2.00;1.27;;;23.30;52.40;;;;;;5028423;28;20045;-59
2021/09/21 02:33:35;;;;;;;1.88;1.33;;;23.30;52.50;;;;;;5038845;28;20017;-59
2021/09/21 02:36:01;;;;;;;1.77;1.27;;;23.30;52.40;;;;;;5041901;28;20071;-58
2021/09/21 02:38:27;;;;;;;1.63;1.30;;;23.30;52.50;;;;;;5048169;28;20017;-58
2021/09/21 02:40:52;;;;;;;1.50;1.20;;;23.30;52.50;;;;;;5047841;28;20548;-58
2021/09/21 02:43:18;;;;;;;2.05;1.48;;;23.30;52.50;;;;;;5040340;28;20040;-52
2021/09/21 02:45:43;;;;;;;1.25;1.05;;;23.30;52.50;;;;;;5049209;28;20472;-54
2021/09/21 02:48:09;;;;;;;1.70;1.23;;;23.20;52.40;;;;;;5040469;28;20026;-59
2021/09/21 02:50:35;;;;;;;1.70;1.30;;;23.20;52.50;;;;;;5041960;28;20033;-59
2021/09/21 02:53:01;;;;;;;1.63;1.30;;;23.20;52.50;;;;;;5049127;28;20453;-59
2021/09/21 02:55:27;;;;;;;1.70;1.30;;;23.20;52.50;;;;;;5035518;28;20056;-59
2021/09/21 02:57:52;;;;;;;1.75;1.30;;;23.20;52.50;;;;;;5036428;28;20028;-54
2021/09/21 03:00:27;;;;;;;2.03;1.45;;;23.20;52.50;;;;;;5048148;28;20021;-59
2021/09/21 03:02:54;;;;;;;1.70;1.30;;;23.20;52.50;;;;;;5034225;28;20025;-58
2021/09/21 03:05:24;;;;;;;1.50;1.23;;;23.20;52.50;;;;;;5035334;28;20099;-59
2021/09/21 03:07:58;;;;;;;1.42;1.20;;;23.20;52.50;;;;;;5042023;28;20033;-59
2021/09/21 03:18:09;;;;;;;2.00;1.30;;;23.10;52.50;;;;;;5044272;28;20029;-59
2021/09/21 03:20:34;;;;;;;2.45;1.40;;;23.10;52.50;;;;;;5042179;28;20033;-59
2021/09/21 03:23:00;;;;;;;2.10;1.40;;;23.10;52.50;;;;;;5047608;28;20090;-59
2021/09/21 03:25:26;;;;;;;1.90;1.42;;;23.10;52.50;;;;;;5036121;28;20139;-58
2021/09/21 03:27:51;;;;;;;1.88;1.27;;;23.10;52.60;;;;;;5030798;28;20076;-54
2021/09/21 03:30:17;;;;;;;1.60;1.30;;;23.10;52.60;;;;;;5038461;28;20108;-54
2021/09/21 03:32:43;;;;;;;1.60;1.30;;;23.10;52.50;;;;;;5048242;28;20037;-59
2021/09/21 03:35:10;;;;;;;2.33;1.42;;;23.10;52.60;;;;;;5045026;28;20116;-57
2021/09/21 03:37:36;;;;;;;1.42;1.23;;;23.10;52.60;;;;;;5039869;28;20105;-52
2021/09/21 03:40:06;;;;;;;1.83;1.30;;;23.10;52.60;;;;;;5029671;28;20326;-59
2021/09/21 03:42:31;;;;;;;1.60;1.30;;;23.10;52.60;;;;;;5044630;28;20461;-59
2021/09/21 03:44:57;;;;;;;1.98;1.10;;;23.10;52.60;;;;;;5043743;28;20041;-59
2021/09/21 03:47:23;;;;;;;1.52;1.30;;;23.10;52.60;;;;;;5041507;28;20502;-59
2021/09/21 03:49:48;;;;;;;1.40;1.10;;;23.10;52.60;;;;;;5033269;28;20025;-58
2021/09/21 03:52:14;;;;;;;1.55;1.20;;;23.10;52.60;;;;;;5045945;28;20412;-59
2021/09/21 03:54:39;;;;;;;1.90;1.33;;;23.10;52.60;;;;;;5043574;28;20159;-53
2021/09/21 03:57:05;;;;;;;1.73;1.40;;;23.10;52.60;;;;;;5027981;28;20361;-59
2021/09/21 03:59:31;;;;;;;1.15;1.02;;;23.10;52.60;;;;;;5043264;28;20037;-58
2021/09/21 04:01:57;;;;;;;1.75;1.30;;;23.00;52.60;;;;;;5035198;28;20044;-59
2021/09/21 04:04:22;;;;;;;1.83;1.30;;;23.00;52.70;;;;;;5040582;28;20537;-59
2021/09/21 04:06:48;;;;;;;1.75;1.30;;;23.00;52.60;;;;;;5035815;28;20037;-58
2021/09/21 04:09:13;;;;;;;1.50;1.10;;;23.10;52.70;;;;;;5034027;28;20049;-58
2021/09/21 04:11:39;;;;;;;1.60;1.30;;;23.00;52.60;;;;;;5040333;28;20048;-59
2021/09/21 04:14:04;;;;;;;1.58;1.33;;;23.00;52.60;;;;;;5035878;28;20397;-56
2021/09/21 04:16:30;;;;;;;1.77;1.27;;;23.00;52.60;;;;;;5044599;28;20033;-59
2021/09/21 04:18:57;;;;;;;1.70;1.30;;;23.00;52.60;;;;;;5041976;28;20032;-59
2021/09/21 04:21:23;;;;;;;1.80;1.40;;;23.00;52.60;;;;;;5037971;28;20036;-59
2021/09/21 04:23:49;;;;;;;1.75;1.33;;;23.00;52.70;;;;;;5042827;28;20464;-55
2021/09/21 04:26:15;;;;;;;1.67;1.30;;;23.00;52.70;;;;;;5030952;28;20025;-55
2021/09/21 04:28:41;;;;;;;2.13;1.40;;;23.00;52.70;;;;;;5041105;28;20029;-59
2021/09/21 04:31:10;;;;;;;1.60;1.20;;;23.00;52.70;;;;;;5036423;28;20029;-59
2021/09/21 04:33:41;;;;;;;1.98;1.50;;;23.00;52.80;;;;;;5042052;28;20078;-58
2021/09/21 04:36:09;;;;;;;2.22;1.20;;;23.00;52.80;;;;;;5043422;28;20044;-59
2021/09/21 04:38:35;;;;;;;1.60;1.30;;;23.00;52.80;;;;;;5037269;28;20373;-58
2021/09/21 04:41:03;;;;;;;1.67;1.23;;;23.00;52.80;;;;;;5045963;28;20029;-58
2021/09/21 04:43:29;;;;;;;1.45;1.17;;;23.00;52.80;;;;;;5037358;28;20104;-58
2021/09/21 04:45:54;;;;;;;1.48;1.20;;;23.00;52.80;;;;;;5045086;28;20068;-58
2021/09/21 04:48:20;;;;;;;1.92;1.30;;;22.90;52.80;;;;;;5036898;28;20581;-58
2021/09/21 04:50:45;;;;;;;1.60;1.30;;;22.90;52.80;;;;;;5028140;28;20021;-58
2021/09/21 04:53:11;;;;;;;1.83;1.33;;;23.00;52.90;;;;;;5030057;28;20025;-58
2021/09/21 04:55:37;;;;;;;1.52;1.20;;;23.00;52.90;;;;;;5027985;28;20033;-58
2021/09/21 04:58:02;;;;;;;1.92;1.20;;;22.90;52.90;;;;;;5041405;28;20636;-57
2021/09/21 05:00:28;;;;;;;1.50;1.20;;;22.90;52.90;;;;;;5045272;28;20033;-58
2021/09/21 05:02:54;;;;;;;1.85;1.10;;;22.90;52.90;;;;;;5032861;28;20092;-56
2021/09/21 05:05:20;;;;;;;1.70;1.30;;;22.90;52.80;;;;;;5031411;28;20029;-56
2021/09/21 05:07:46;;;;;;;1.70;1.30;;;22.90;52.90;;;;;;5040398;28;20087;-58
2021/09/21 05:10:12;;;;;;;1.73;1.20;;;22.90;52.80;;;;;;5044220;28;20044;-57
2021/09/21 05:12:37;;;;;;;2.30;1.50;;;22.90;52.80;;;;;;5044328;28;20036;-56
2021/09/21 05:15:04;;;;;;;1.83;1.30;;;22.90;52.80;;;;;;5040640;28;20753;-58
2021/09/21 05:17:30;;;;;;;1.83;1.27;;;22.90;52.80;;;;;;5027373;28;20690;-58
2021/09/21 05:19:55;;;;;;;2.20;1.70;;;22.90;52.80;;;;;;5041990;28;20031;-58
2021/09/21 05:22:21;;;;;;;1.67;1.27;;;22.90;52.80;;;;;;5033145;28;20056;-52
2021/09/21 05:24:46;;;;;;;3.00;1.30;;;22.90;52.80;;;;;;5045360;28;20724;-55
2021/09/21 05:27:12;;;;;;;2.25;1.60;;;22.90;52.80;;;;;;5028587;28;20116;-58
2021/09/21 05:29:38;;;;;;;2.17;1.50;;;22.90;53.00;;;;;;5040241;28;20028;-58
2021/09/21 05:32:03;;;;;;;2.08;1.50;;;22.90;52.80;;;;;;5056701;28;20491;-56
2021/09/21 05:34:29;;;;;;;2.60;1.55;;;23.00;52.80;;;;;;5037316;28;20026;-56
2021/09/21 05:36:55;;;;;;;3.08;1.40;;;23.10;52.40;;;;;;5042573;28;20078;-57
2021/09/21 05:39:20;;;;;;;2.03;1.40;;;23.20;52.20;;;;;;5041711;28;20041;-57
2021/09/21 05:41:46;;;;;;;2.17;1.60;;;23.30;52.70;;;;;;5037783;28;20034;-55
2021/09/21 05:44:11;;;;;;;1.63;1.27;;;23.40;52.30;;;;;;5038942;28;20115;-57
2021/09/21 05:46:37;;;;;;;2.15;1.30;;;23.40;52.30;;;;;;5030537;28;20034;-58
2021/09/21 05:49:03;;;;;;;1.98;1.33;;;23.50;52.10;;;;;;5044474;28;20052;-58
2021/09/21 05:51:30;;;;;;;3.08;1.40;;;23.60;52.00;;;;;;5039932;28;20022;-59
2021/09/21 05:53:56;;;;;;;2.47;1.60;;;23.70;51.90;;;;;;5029881;28;20472;-57
2021/09/21 05:56:23;;;;;;;1.85;1.30;;;23.70;51.70;;;;;;5028868;28;20041;-57
2021/09/21 05:58:49;;;;;;;1.80;1.25;;;23.90;51.60;;;;;;5035370;28;20033;-58
2021/09/21 06:01:15;;;;;;;2.05;1.45;;;23.90;51.40;;;;;;5043785;28;20423;-57
2021/09/21 06:03:41;;;;;;;2.40;1.50;;;24.00;51.30;;;;;;5038063;28;20108;-55
2021/09/21 06:06:07;;;;;;;1.80;1.35;;;24.10;51.20;;;;;;5026998;28;20033;-59
2021/09/21 06:08:33;;;;;;;2.35;1.63;;;24.20;51.10;;;;;;5025979;28;20033;-59
2021/09/21 06:10:59;;;;;;;1.90;1.30;;;24.30;50.90;;;;;;5029984;28;20034;-58
2021/09/21 06:13:24;;;;;;;1.60;1.20;;;24.40;50.70;;;;;;5030549;28;20366;-54
2021/09/21 06:15:50;;;;;;;1.70;1.30;;;24.40;50.40;;;;;;5047955;28;20349;-59
2021/09/21 06:18:17;;;;;;;2.40;1.27;;;24.50;50.40;;;;;;5032145;28;20064;-60
2021/09/21 06:20:44;;;;;;;1.85;1.50;;;24.50;50.30;;;;;;5037052;28;20474;-59
2021/09/21 06:23:10;;;;;;;2.05;1.40;;;24.50;50.30;;;;;;5037405;28;20029;-59
2021/09/21 06:25:37;;;;;;;2.38;1.42;;;24.50;50.30;;;;;;5035274;28;20057;-59
2021/09/21 06:28:03;;;;;;;1.90;1.30;;;24.50;50.20;;;;;;5032885;28;20741;-58
2021/09/21 06:30:29;;;;;;;2.05;1.30;;;24.50;50.00;;;;;;5047882;28;20043;-58
2021/09/21 06:32:55;;;;;;;1.65;1.23;;;24.60;50.10;;;;;;5049524;28;20562;-58
2021/09/21 06:35:21;;;;;;;1.67;1.27;;;24.50;50.10;;;;;;5031594;28;20080;-59
2021/09/21 06:37:48;;;;;;;1.60;1.20;;;24.60;50.10;;;;;;5045997;28;20476;-58
2021/09/21 06:40:15;;;;;;;2.17;1.30;;;24.60;50.20;;;;;;5048039;28;20536;-57
2021/09/21 06:42:42;;;;;;;2.13;1.40;;;24.60;50.10;;;;;;5034096;28;20029;-59
2021/09/21 06:45:10;;;;;;;2.40;1.40;;;24.60;50.10;;;;;;5031593;28;20032;-54
2021/09/21 06:47:37;;;;;;;2.30;1.40;;;24.60;50.10;;;;;;5041999;28;20029;-59
2021/09/21 06:50:04;;;;;;;1.92;1.20;;;24.60;50.10;;;;;;5042540;28;20113;-56
2021/09/21 06:52:30;;;;;;;3.75;1.60;;;24.60;50.10;;;;;;5044085;28;20075;-59
2021/09/21 06:54:56;;;;;;;1.80;1.30;;;24.60;50.10;;;;;;5047087;28;20033;-54
2021/09/21 06:57:22;;;;;;;1.90;1.35;;;24.60;50.10;;;;;;5043438;28;20061;-58
2021/09/21 06:59:48;;;;;;;1.60;1.30;;;24.60;50.10;;;;;;5030023;28;20061;-59
2021/09/21 07:02:14;;;;;;;1.80;1.20;;;24.60;50.00;;;;;;5037914;28;20087;-56
2021/09/21 07:04:40;;;;;;;2.08;1.30;;;24.60;50.00;;;;;;5033499;28;20076;-58
2021/09/21 07:07:06;;;;;;;6.50;1.67;;;24.60;50.10;;;;;;5029957;28;20041;-57
2021/09/21 07:09:31;;;;;;;2.28;1.50;;;24.60;50.10;;;;;;5036966;28;20045;-57
2021/09/21 07:11:57;;;;;;;2.25;1.40;;;24.60;50.00;;;;;;5041132;28;20648;-55
2021/09/21 07:14:23;;;;;;;1.77;1.20;;;24.60;50.00;;;;;;5032711;28;20030;-58
2021/09/21 07:16:48;;;;;;;2.17;1.30;;;24.70;50.00;;;;;;5040893;28;20049;-55
2021/09/21 07:19:16;;;;;;;1.92;1.27;;;24.70;50.00;;;;;;5039329;28;20040;-56
2021/09/21 07:21:42;;;;;;;1.83;1.17;;;24.70;49.90;;;;;;5034591;28;20082;-55
2021/09/21 07:24:08;;;;;;;3.10;1.30;;;24.60;49.90;;;;;;5031650;28;20070;-58
2021/09/21 07:26:34;;;;;;;2.20;1.30;;;24.70;49.90;;;;;;5049140;28;20094;-58
2021/09/21 07:28:59;;;;;;;1.48;1.10;;;24.70;49.90;;;;;;5032460;28;20054;-59
2021/09/21 07:31:25;;;;;;;2.70;1.20;;;24.60;49.80;;;;;;5033538;28;20044;-58
2021/09/21 07:33:51;;;;;;;1.80;1.13;;;24.70;50.00;;;;;;5030639;28;20381;-53
2021/09/21 07:36:17;;;;;;;3.45;1.23;;;24.60;50.10;;;;;;5037112;28;20519;-57
2021/09/21 07:38:42;;;;;;;4.03;1.23;;;24.60;50.20;;;;;;5045959;28;20021;-57
2021/09/21 07:41:08;;;;;;;1.80;1.20;;;24.70;50.20;;;;;;5040188;28;20435;-55
2021/09/21 07:43:34;;;;;;;1.48;1.15;;;24.70;50.10;;;;;;5029383;28;20576;-58
2021/09/21 07:45:59;;;;;;;2.00;1.48;;;24.70;50.00;;;;;;5028882;28;20031;-57
2021/09/21 07:48:25;;;;;;;1.42;1.10;;;24.70;50.00;;;;;;5027844;28;20065;-58
2021/09/21 07:50:52;;;;;;;1.83;1.30;;;24.70;49.90;;;;;;5030664;28;20104;-58
2021/09/21 07:53:18;;;;;;;1.88;1.20;;;24.70;49.90;;;;;;5031062;28;20021;-54
2021/09/21 07:55:44;;;;;;;1.92;1.20;;;24.70;49.90;;;;;;5030483;28;20517;-56
2021/09/21 07:58:10;;;;;;;3.13;1.33;;;24.70;49.90;;;;;;5027683;28;20104;-58
2021/09/21 08:00:36;;;;;;;2.47;1.30;;;24.70;50.10;;;;;;5041351;28;20112;-58
2021/09/21 08:03:02;;;;;;;2.70;1.33;;;24.70;49.90;;;;;;5047554;28;20033;-56
2021/09/21 08:05:28;;;;;;;2.13;1.30;;;24.70;49.90;;;;;;5048068;28;20029;-57
2021/09/21 08:07:53;;;;;;;2.20;1.38;;;24.70;49.90;;;;;;5035023;28;20091;-58
2021/09/21 08:10:19;;;;;;;1.70;1.20;;;24.70;49.90;;;;;;5032751;28;20024;-58
2021/09/21 08:12:45;;;;;;;1.90;1.10;;;24.70;49.90;;;;;;5045948;28;20042;-58
2021/09/21 08:15:12;;;;;;;1.60;1.17;;;24.70;50.00;;;;;;5034751;28;20045;-57
2021/09/21 08:17:37;;;;;;;1.77;1.20;;;24.70;50.00;;;;;;5036757;28;20025;-58
2021/09/21 08:20:05;;;;;;;2.22;1.30;;;24.70;49.90;;;;;;5028316;28;20367;-59
2021/09/21 08:22:31;;;;;;;2.58;1.48;;;24.70;49.90;;;;;;5040474;28;20133;-59
2021/09/21 08:24:56;;;;;;;2.65;1.30;;;24.70;49.90;;;;;;5029812;28;20151;-59
2021/09/21 08:27:23;;;;;;;2.88;1.40;;;24.80;49.90;;;;;;5048312;28;20508;-58
2021/09/21 08:29:50;;;;;;;1.90;1.30;;;24.80;49.90;;;;;;5044230;28;20044;-59
2021/09/21 08:32:16;;;;;;;1.85;1.23;;;24.80;49.90;;;;;;5025061;28;20032;-58
2021/09/21 08:34:41;;;;;;;1.95;1.30;;;24.80;49.90;;;;;;5025387;28;20038;-57
2021/09/21 08:37:07;;;;;;;2.42;1.30;;;24.70;49.90;;;;;;5027670;28;20729;-56
2021/09/21 08:39:33;;;;;;;2.20;1.30;;;24.80;49.90;;;;;;5024378;28;20577;-51
2021/09/21 08:41:59;;;;;;;2.35;1.40;;;24.80;49.90;;;;;;5028475;28;20033;-58
2021/09/21 08:44:24;;;;;;;2.38;1.25;;;24.80;49.90;;;;;;5013550;28;20037;-59
2021/09/21 08:46:51;;;;;;;1.73;1.30;;;24.70;49.90;;;;;;5022046;28;20088;-58
2021/09/21 08:49:17;;;;;;;2.30;1.30;;;24.80;49.90;;;;;;5022159;28;20034;-54
2021/09/21 08:51:43;;;;;;;2.20;1.40;;;24.70;49.90;;;;;;5028273;28;20030;-58
2021/09/21 08:54:09;;;;;;;1.80;1.30;;;24.70;49.80;;;;;;5021085;28;20552;-58
2021/09/21 08:56:35;;;;;;;1.95;1.33;;;24.80;49.90;;;;;;5028330;28;20037;-58
2021/09/21 08:59:10;;;;;;;2.50;1.40;;;24.80;49.90;;;;;;5023088;28;20136;-59
2021/09/21 09:01:41;;;;;;;1.98;1.35;;;24.80;49.90;;;;;;5022177;28;20057;-54
2021/09/21 09:04:07;;;;;;;2.30;1.20;;;24.80;49.90;;;;;;5021361;28;20044;-50
2021/09/21 09:06:43;;;;;;;2.33;1.25;;;24.70;49.90;;;;;;5018771;28;20092;-58
2021/09/21 09:09:14;;;;;;;1.90;1.30;;;24.80;49.90;;;;;;5020626;28;20045;-58
2021/09/21 09:11:40;;;;;;;2.33;1.40;;;24.80;49.90;;;;;;5026769;28;20351;-58
2021/09/21 09:14:06;;;;;;;3.05;1.20;;;24.80;49.90;;;;;;5020541;28;20030;-57
2021/09/21 09:16:33;;;;;;;2.13;1.40;;;24.80;49.90;;;;;;5022872;28;20021;-58
2021/09/21 09:19:07;;;;;;;2.25;1.33;;;24.80;49.90;;;;;;5019087;28;20048;-58
2021/09/21 09:21:37;;;;;;;2.17;1.30;;;24.80;49.90;;;;;;5023780;28;20033;-59
2021/09/21 09:24:04;;;;;;;2.25;1.40;;;24.80;49.90;;;;;;5017909;28;20034;-53
2021/09/21 09:26:35;;;;;;;2.00;1.35;;;24.80;49.80;;;;;;5021206;28;20133;-53
2021/09/21 09:29:01;;;;;;;2.25;1.33;;;24.80;49.90;;;;;;5026962;28;20037;-58
2021/09/21 09:31:28;;;;;;;2.13;1.40;;;24.80;49.90;;;;;;5024868;28;20067;-57
2021/09/21 09:34:09;;;;;;;2.25;1.42;;;24.80;49.90;;;;;;5024431;28;20029;-56
2021/09/21 09:37:04;;;;;;;2.03;1.40;;;24.80;49.90;;;;;;5023726;28;20061;-58
2021/09/21 09:39:31;;;;;;;1.88;1.30;;;24.80;49.90;;;;;;5023390;28;20037;-58
2021/09/21 09:41:59;;;;;;;1.90;1.30;;;24.80;49.80;;;;;;5024234;28;20715;-58
2021/09/21 09:44:29;;;;;;;1.65;1.20;;;24.80;49.80;;;;;;5026673;28;20029;-59
2021/09/21 09:47:04;;;;;;;2.22;1.38;;;24.80;49.80;;;;;;5019261;28;20330;-58
2021/09/21 09:49:32;;;;;;;2.15;1.20;;;24.80;49.80;;;;;;5026535;28;20587;-58
2021/09/21 09:52:17;;;;;;;2.35;1.58;;;24.80;49.80;;;;;;5021891;28;20018;-58
2021/09/21 09:54:45;;;;;;;2.05;1.50;;;24.80;49.90;;;;;;5053090;28;20033;-58
2021/09/21 09:57:14;;;;;;;2.70;1.50;;;24.80;49.90;;;;;;5014984;28;20518;-54
2021/09/21 09:59:41;;;;;;;2.45;1.60;;;24.80;49.80;;;;;;5022669;28;20084;-57
2021/09/21 10:02:08;;;;;;;1.95;1.58;;;24.80;49.70;;;;;;5033293;28;20370;-56
2021/09/21 10:04:34;;;;;;;1.92;1.30;;;24.80;49.70;;;;;;5045460;28;20029;-57
2021/09/21 10:07:00;;;;;;;2.45;1.50;;;24.80;49.70;;;;;;5036693;28;20465;-56
2021/09/21 10:09:26;;;;;;;2.33;1.60;;;24.80;49.70;;;;;;5044043;28;20025;-58
2021/09/21 10:11:55;;;;;;;2.08;1.40;;;24.80;49.70;;;;;;5042642;28;20040;-58
2021/09/21 10:14:23;;;;;;;1.90;1.40;;;24.80;49.70;;;;;;5041811;28;20044;-56
2021/09/21 10:16:59;;;;;;;2.22;1.50;;;24.70;49.70;;;;;;5038570;28;20473;-59
2021/09/21 10:19:26;;;;;;;2.35;1.55;;;24.70;49.70;;;;;;5042853;28;20531;-56
2021/09/21 10:21:53;;;;;;;3.65;1.50;;;24.70;49.70;;;;;;5046287;28;22492;-58
2021/09/21 10:24:40;;;;;;;2.53;1.60;;;24.70;49.80;;;;;;5039022;28;20125;-59
2021/09/21 10:27:13;;;;;;;2.65;1.50;;;24.70;49.80;;;;;;5043637;28;20147;-58
2021/09/21 10:29:39;;;;;;;2.85;1.38;;;24.60;49.80;;;;;;5049012;28;20035;-58
2021/09/21 10:32:13;;;;;;;3.08;1.80;;;24.60;49.90;;;;;;5041425;28;20132;-57
2021/09/21 10:34:44;;;;;;;2.42;1.40;;;24.60;49.90;;;;;;5045653;28;20104;-57
2021/09/21 10:37:10;;;;;;;2.33;1.60;;;24.60;49.90;;;;;;5045029;28;20029;-58
2021/09/21 10:39:36;;;;;;;2.53;1.55;;;24.60;50.00;;;;;;5049172;28;20083;-58
2021/09/21 10:42:09;;;;;;;2.72;1.60;;;24.60;50.00;;;;;;5055312;28;20079;-58
2021/09/21 10:44:36;;;;;;;2.47;1.60;;;24.70;50.00;;;;;;5055333;28;20124;-57
2021/09/21 10:47:04;;;;;;;2.90;1.60;;;24.60;50.00;;;;;;5044954;28;20025;-58
2021/09/21 10:49:41;;;;;;;2.08;1.40;;;24.70;50.10;;;;;;5049489;28;20029;-58
2021/09/21 10:52:11;;;;;;;2.83;1.60;;;24.70;50.10;;;;;;5034915;28;20116;-59
2021/09/21 10:54:40;;;;;;;2.38;1.60;;;24.70;50.00;;;;;;5037866;28;20028;-58
2021/09/21 10:57:17;;;;;;;2.27;1.50;;;24.70;50.00;;;;;;5035670;28;20033;-59
2021/09/21 11:00:00;;;;;;;3.22;1.65;;;24.70;50.00;;;;;;5039228;28;20276;-57
2021/09/21 11:02:31;;;;;;;2.47;1.70;;;24.70;50.00;;;;;;5036747;28;20397;-59
2021/09/21 11:04:58;;;;;;;1.95;1.35;;;24.70;50.10;;;;;;5035970;28;20523;-55
2021/09/21 11:07:24;;;;;;;2.03;1.40;;;24.70;50.10;;;;;;5030047;28;20064;-59
2021/09/21 11:09:55;;;;;;;2.60;1.60;;;24.80;50.10;;;;;;5038736;28;20186;-59
2021/09/21 11:12:25;;;;;;;2.55;1.55;;;24.80;50.60;;;;;;5038530;28;20036;-57
2021/09/21 11:14:57;;;;;;;3.00;1.75;;;24.80;50.10;;;;;;5043124;28;20614;-59
2021/09/21 11:17:25;;;;;;;2.50;1.40;;;24.80;50.10;;;;;;5036790;28;20373;-59
2021/09/21 11:19:56;;;;;;;2.92;1.50;;;24.80;50.20;;;;;;5056283;28;20047;-59
2021/09/21 11:22:29;;;;;;;2.28;1.50;;;24.80;50.10;;;;;;5040115;28;20127;-60
2021/09/21 11:25:07;;;;;;;2.13;1.40;;;24.80;50.10;;;;;;5043182;28;20449;-59
2021/09/21 11:27:34;;;;;;;2.95;1.65;;;24.80;50.60;;;;;;5038708;28;20032;-58
2021/09/21 11:30:07;;;;;;;2.42;1.55;;;24.80;50.10;;;;;;5042495;28;20017;-58
2021/09/21 11:32:33;;;;;;;2.15;1.30;;;24.80;50.00;;;;;;5019496;28;20073;-58
2021/09/21 11:35:00;;;;;;;4.22;1.80;;;24.80;50.10;;;;;;5016250;28;20473;-57
2021/09/21 11:37:27;;;;;;;3.20;1.50;;;24.80;50.00;;;;;;5023632;28;20037;-59
2021/09/21 11:39:52;;;;;;;2.40;1.50;;;24.80;50.00;;;;;;5016806;28;20064;-59
2021/09/21 11:42:24;;;;;;;2.53;1.50;;;24.80;50.00;;;;;;5023026;28;20057;-59
2021/09/21 11:44:50;;;;;;;2.33;1.50;;;24.90;50.10;;;;;;5012186;28;20029;-56
2021/09/21 11:47:16;;;;;;;2.60;1.60;;;24.90;50.00;;;;;;5022634;28;20047;-57
2021/09/21 11:49:55;;;;;;;3.38;1.60;;;24.90;50.00;;;;;;5023622;28;20097;-59
2021/09/21 11:52:24;;;;;;;3.08;1.60;;;24.90;50.00;;;;;;5020922;28;20063;-60
2021/09/21 11:54:49;;;;;;;2.80;1.60;;;24.90;50.00;;;;;;5014180;28;20107;-59
2021/09/21 11:57:15;;;;;;;1.77;1.20;;;24.90;50.10;;;;;;5014485;28;20284;-60
2021/09/21 11:59:42;;;;;;;3.75;1.27;;;24.90;50.60;;;;;;5027568;28;20029;-57
2021/09/21 12:02:07;;;;;;;2.15;1.50;;;24.90;50.10;;;;;;5031679;28;20037;-61
2021/09/21 12:04:33;;;;;;;2.65;1.45;;;24.90;50.20;;;;;;5050773;28;20096;-60
2021/09/21 12:07:01;;;;;;;2.70;1.63;;;24.90;50.10;;;;;;5043197;28;20025;-61
2021/09/21 12:09:27;;;;;;;2.30;1.55;;;24.90;49.90;;;;;;5042237;28;20048;-61
2021/09/21 12:11:53;;;;;;;2.50;1.60;;;24.90;49.90;;;;;;5038611;28;20025;-60
2021/09/21 12:14:18;;;;;;;3.53;1.60;;;25.00;49.90;;;;;;5029866;28;20021;-56
2021/09/21 12:16:51;;;;;;;2.97;1.50;;;25.00;49.90;;;;;;5039379;28;20047;-58
2021/09/21 12:19:18;;;;;;;2.33;1.60;;;25.00;49.90;;;;;;5041802;28;20121;-59
2021/09/21 12:21:46;;;;;;;2.67;1.60;;;25.00;49.80;;;;;;5040535;28;20025;-59
2021/09/21 12:24:11;;;;;;;2.80;1.58;;;25.00;49.80;;;;;;5045712;28;20033;-59
2021/09/21 12:26:37;;;;;;;2.90;1.70;;;25.10;49.90;;;;;;5031964;28;20021;-59
2021/09/21 12:29:08;;;;;;;2.95;1.50;;;25.10;49.90;;;;;;5038671;28;20033;-59
2021/09/21 12:31:35;;;;;;;2.28;1.50;;;25.10;49.80;;;;;;5037505;28;20044;-59
2021/09/21 12:34:11;;;;;;;2.80;1.60;;;25.10;49.80;;;;;;5043204;28;20638;-58
2021/09/21 12:36:44;;;;;;;2.15;1.50;;;25.10;49.80;;;;;;5036966;28;20029;-59
2021/09/21 12:39:17;;;;;;;2.33;1.63;;;25.10;49.80;;;;;;5036748;28;20087;-59
2021/09/21 12:41:46;;;;;;;2.55;1.40;;;25.10;49.80;;;;;;5050616;28;20114;-53
2021/09/21 12:44:15;;;;;;;3.25;1.80;;;25.10;49.80;;;;;;5041918;28;20481;-58
2021/09/21 12:46:45;;;;;;;2.63;1.77;;;25.10;49.80;;;;;;5040029;28;20104;-53
2021/09/21 12:49:11;;;;;;;;;;;25.10;49.80;;;;;;5047786;28;20040;-56
2021/09/21 12:51:41;;;;;;;2.75;1.52;;;25.10;49.80;;;;;;5043030;28;19908;-53
2021/09/21 12:54:11;;;;;;;2.78;1.50;;;25.10;49.80;;;;;;5028779;28;20079;-59
2021/09/21 12:56:39;;;;;;;2.22;1.40;;;25.10;49.80;;;;;;5034667;28;20053;-59
2021/09/21 12:59:09;;;;;;;5.03;1.60;;;25.10;49.70;;;;;;5037963;28;20028;-58
2021/09/21 13:01:35;;;;;;;2.70;1.50;;;25.10;49.80;;;;;;5042995;28;20112;-59